createdAt,value
2023-01-20T00:01:30.803Z,100.00
2023-01-20T00:03:59.097Z,100.00
2023-01-20T00:06:30.447Z,100.00
2023-01-20T00:09:02.436Z,100.00
2023-01-20T00:11:30.275Z,100.00
2023-01-20T00:14:00.626Z,100.00
2023-01-20T00:16:28.973Z,100.00
2023-01-20T00:18:56.438Z,100.00
2023-01-20T00:21:23.825Z,100.00
2023-01-20T00:23:50.933Z,100.00
2023-01-20T00:26:19.652Z,100.00
2023-01-20T00:28:48.092Z,100.00
2023-01-20T00:31:30.841Z,100.00
2023-01-20T00:34:00.194Z,100.00
2023-01-20T00:36:31.339Z,100.00
2023-01-20T00:38:59.397Z,100.00
2023-01-20T00:41:26.864Z,100.00
2023-01-20T00:43:54.445Z,100.00
2023-01-20T00:46:23.065Z,100.00
2023-01-20T00:48:50.594Z,100.00
2023-01-20T00:51:17.923Z,100.00
2023-01-20T00:53:45.320Z,100.00
2023-01-20T00:56:12.726Z,100.00
2023-01-20T00:58:42.179Z,100.00
2023-01-20T01:01:10.105Z,100.00
2023-01-20T01:03:37.751Z,100.00
2023-01-20T01:06:09.811Z,100.00
2023-01-20T01:08:37.287Z,100.00
2023-01-20T01:11:05.264Z,100.00
2023-01-20T01:13:32.915Z,100.00
2023-01-20T01:16:01.018Z,100.00
2023-01-20T01:18:28.631Z,100.00
2023-01-20T01:20:56.654Z,100.00
2023-01-20T01:23:24.333Z,100.00
2023-01-20T01:25:51.780Z,100.00
2023-01-20T01:28:19.091Z,100.00
2023-01-20T01:30:46.543Z,100.00
2023-01-20T01:33:14.014Z,100.00
2023-01-20T01:35:41.208Z,100.00
2023-01-20T01:38:08.484Z,100.00
2023-01-20T01:40:35.738Z,100.00
2023-01-20T01:43:03.083Z,100.00
2023-01-20T01:45:32.678Z,100.00
2023-01-20T01:48:05.771Z,100.00
2023-01-20T01:50:59.663Z,100.00
2023-01-20T01:53:30.264Z,100.00
2023-01-20T01:56:01.496Z,100.00
2023-01-20T01:58:35.080Z,100.00
2023-01-20T02:01:02.741Z,100.00
2023-01-20T02:03:40.012Z,100.00
2023-01-20T02:06:07.731Z,100.00
2023-01-20T02:08:35.421Z,100.00
2023-01-20T02:11:02.818Z,100.00
2023-01-20T02:13:30.246Z,100.00
2023-01-20T02:16:21.115Z,100.00
2023-01-20T02:19:01.577Z,100.00
2023-01-20T02:21:46.389Z,100.00
2023-01-20T02:24:22.622Z,100.00
2023-01-20T02:27:14.596Z,100.00
2023-01-20T02:29:54.110Z,100.00
2023-01-20T02:32:52.436Z,100.00
2023-01-20T02:35:26.735Z,100.00
2023-01-20T02:37:59.903Z,100.00
2023-01-20T02:40:33.425Z,100.00
2023-01-20T02:43:10.682Z,100.00
2023-01-20T02:45:47.735Z,100.00
2023-01-20T02:48:39.929Z,100.00
2023-01-20T02:51:14.528Z,100.00
2023-01-20T02:53:56.096Z,100.00
2023-01-20T02:56:26.929Z,100.00
2023-01-20T02:59:05.686Z,100.00
2023-01-20T03:01:39.981Z,100.00
2023-01-20T03:04:11.195Z,100.00
2023-01-20T03:06:44.909Z,100.00
2023-01-20T03:09:18.455Z,100.00
2023-01-20T03:11:53.715Z,100.00
2023-01-20T03:14:21.238Z,100.00
2023-01-20T03:16:50.439Z,100.00
2023-01-20T03:19:20.520Z,100.00
2023-01-20T03:21:49.105Z,100.00
2023-01-20T03:24:16.889Z,100.00
2023-01-20T03:26:44.331Z,100.00
2023-01-20T03:29:12.716Z,100.00
2023-01-20T03:31:45.127Z,100.00
2023-01-20T03:34:17.623Z,100.00
2023-01-20T03:36:45.963Z,100.00
2023-01-20T03:39:14.199Z,100.00
2023-01-20T03:42:02.851Z,100.00
2023-01-20T03:44:36.324Z,100.00
2023-01-20T03:47:28.778Z,100.00
2023-01-20T03:50:10.217Z,100.00
2023-01-20T03:52:52.783Z,100.00
2023-01-20T03:55:38.279Z,100.00
2023-01-20T03:58:10.287Z,100.00
2023-01-20T04:00:42.308Z,100.00
2023-01-20T04:03:16.755Z,100.00
2023-01-20T04:05:45.239Z,100.00
2023-01-20T04:08:15.234Z,100.00
2023-01-20T04:10:46.299Z,100.00
2023-01-20T04:13:15.111Z,100.00
2023-01-20T04:15:45.999Z,100.00
2023-01-20T04:18:23.045Z,100.00
2023-01-20T04:21:05.157Z,100.00
2023-01-20T04:23:35.247Z,100.00
2023-01-20T04:26:03.066Z,100.00
2023-01-20T04:28:30.581Z,100.00
2023-01-20T04:30:57.988Z,100.00
2023-01-20T04:33:25.536Z,100.00
2023-01-20T04:35:53.170Z,100.00
2023-01-20T04:38:21.098Z,100.00
2023-01-20T04:40:48.528Z,100.00
2023-01-20T04:43:16.139Z,100.00
2023-01-20T04:45:43.380Z,100.00
2023-01-20T04:48:10.702Z,100.00
2023-01-20T04:50:38.900Z,100.00
2023-01-20T04:53:06.371Z,100.00
2023-01-20T04:55:34.070Z,100.00
2023-01-20T04:58:01.382Z,100.00
2023-01-20T05:00:28.882Z,100.00
2023-01-20T05:02:58.314Z,100.00
2023-01-20T05:05:25.860Z,100.00
2023-01-20T05:07:54.182Z,100.00
2023-01-20T05:10:21.681Z,100.00
2023-01-20T05:12:49.227Z,100.00
2023-01-20T05:15:16.682Z,100.00
2023-01-20T05:17:44.261Z,100.00
2023-01-20T05:20:11.801Z,100.00
2023-01-20T05:22:39.409Z,100.00
2023-01-20T05:25:07.404Z,100.00
2023-01-20T05:27:35.848Z,100.00
2023-01-20T05:30:07.504Z,100.00
2023-01-20T05:32:34.999Z,100.00
2023-01-20T05:35:02.216Z,100.00
2023-01-20T05:37:29.675Z,100.00
2023-01-20T05:39:57.047Z,100.00
2023-01-20T05:42:24.402Z,100.00
2023-01-20T05:44:51.578Z,100.00
2023-01-20T05:47:18.860Z,100.00
2023-01-20T05:49:46.000Z,100.00
2023-01-20T05:52:13.231Z,100.00
2023-01-20T05:54:40.364Z,100.00
2023-01-20T05:57:07.955Z,100.00
2023-01-20T05:59:35.356Z,100.00
2023-01-20T06:02:02.655Z,100.00
2023-01-20T06:04:29.955Z,100.00
2023-01-20T06:06:57.920Z,100.00
2023-01-20T06:09:25.192Z,100.00
2023-01-20T06:11:52.720Z,100.00
2023-01-20T06:14:20.063Z,100.00
2023-01-20T06:16:47.441Z,100.00
2023-01-20T06:19:14.650Z,100.00
2023-01-20T06:21:42.170Z,100.00
2023-01-20T06:24:09.503Z,100.00
2023-01-20T06:26:36.780Z,100.00
2023-01-20T06:29:04.023Z,100.00
2023-01-20T06:31:31.287Z,100.00
2023-01-20T06:33:58.514Z,100.00
2023-01-20T06:36:26.004Z,100.00
2023-01-20T06:38:53.867Z,100.00
2023-01-20T06:41:21.573Z,100.00
2023-01-20T06:43:50.343Z,100.00
2023-01-20T06:46:18.217Z,100.00
2023-01-20T06:48:46.444Z,100.00
2023-01-20T06:51:19.325Z,100.00
2023-01-20T06:53:47.912Z,100.00
2023-01-20T06:56:16.447Z,100.00
2023-01-20T06:58:44.929Z,100.00
2023-01-20T07:01:25.078Z,100.00
2023-01-20T07:03:53.412Z,100.00
2023-01-20T07:06:26.945Z,100.00
2023-01-20T07:08:55.555Z,100.00
2023-01-20T07:11:24.079Z,100.00
2023-01-20T07:13:51.419Z,100.00
2023-01-20T07:16:18.956Z,100.00
2023-01-20T07:18:51.600Z,100.00
2023-01-20T07:21:19.541Z,100.00
2023-01-20T07:23:48.347Z,100.00
2023-01-20T07:26:19.367Z,100.00
2023-01-20T07:28:47.424Z,100.00
2023-01-20T07:31:19.176Z,100.00
2023-01-20T07:33:46.888Z,100.00
2023-01-20T07:36:15.857Z,100.00
2023-01-20T07:38:43.641Z,100.00
2023-01-20T07:41:16.145Z,100.00
2023-01-20T07:44:05.272Z,100.00
2023-01-20T07:46:32.784Z,100.00
2023-01-20T07:49:00.077Z,100.00
2023-01-20T07:51:27.402Z,100.00
2023-01-20T07:53:54.600Z,100.00
2023-01-20T07:56:30.172Z,100.00
2023-01-20T07:58:59.642Z,100.00
2023-01-20T08:01:37.154Z,100.00
2023-01-20T08:04:05.313Z,100.00
2023-01-20T08:07:00.597Z,100.00
2023-01-20T08:09:28.352Z,100.00
2023-01-20T08:11:55.844Z,100.00
2023-01-20T08:14:23.383Z,100.00
2023-01-20T08:16:50.737Z,100.00
2023-01-20T08:19:18.188Z,100.00
2023-01-20T08:21:45.551Z,100.00
2023-01-20T08:24:12.842Z,100.00
2023-01-20T08:26:40.030Z,100.00
2023-01-20T08:29:08.837Z,100.00
2023-01-20T08:31:37.100Z,100.00
2023-01-20T08:34:05.620Z,100.00
2023-01-20T08:36:36.373Z,100.00
2023-01-20T08:39:05.743Z,100.00
2023-01-20T08:41:37.077Z,100.00
2023-01-20T08:44:08.040Z,100.00
2023-01-20T08:46:39.870Z,95.06
2023-01-20T08:49:11.596Z,93.66
2023-01-20T08:51:41.318Z,92.22
2023-01-20T08:54:09.472Z,91.75
2023-01-20T08:56:37.008Z,91.30
2023-01-20T08:59:05.309Z,91.33
2023-01-20T09:01:36.283Z,90.64
2023-01-20T09:04:07.098Z,90.35
2023-01-20T09:06:46.837Z,89.93
2023-01-20T09:09:15.697Z,88.90
2023-01-20T09:11:51.022Z,89.04
2023-01-20T09:14:23.979Z,88.32
2023-01-20T09:16:51.934Z,87.14
2023-01-20T09:19:19.675Z,85.08
2023-01-20T09:21:47.168Z,83.77
2023-01-20T09:24:14.962Z,83.09
2023-01-20T09:26:42.619Z,83.37
2023-01-20T09:29:13.219Z,84.25
2023-01-20T09:31:46.193Z,85.35
2023-01-20T09:34:19.653Z,87.36
2023-01-20T09:36:55.955Z,89.03
2023-01-20T09:40:02.008Z,90.90
2023-01-20T09:43:05.218Z,94.93
2023-01-20T09:45:38.744Z,97.19
2023-01-20T09:49:03.822Z,99.77
2023-01-20T09:52:26.192Z,100.00
2023-01-20T09:55:23.796Z,100.00
2023-01-20T09:57:59.402Z,100.00
2023-01-20T10:00:32.170Z,100.00
2023-01-20T10:03:11.954Z,100.00
2023-01-20T10:05:40.498Z,100.00
2023-01-20T10:08:13.346Z,100.00
2023-01-20T10:11:05.064Z,100.00
2023-01-20T10:13:49.625Z,100.00
2023-01-20T10:16:27.907Z,100.00
2023-01-20T10:19:05.279Z,100.00
2023-01-20T10:21:42.126Z,100.00
2023-01-20T10:24:23.919Z,100.00
2023-01-20T10:27:02.419Z,100.00
2023-01-20T10:29:41.774Z,100.00
2023-01-20T10:32:36.852Z,100.00
2023-01-20T10:35:16.699Z,100.00
2023-01-20T10:37:44.290Z,100.00
2023-01-20T10:40:14.718Z,100.00
2023-01-20T10:42:48.747Z,100.00
2023-01-20T10:45:28.313Z,100.00
2023-01-20T10:48:30.572Z,100.00
2023-01-20T10:51:19.653Z,100.00
2023-01-20T10:53:58.044Z,100.00
2023-01-20T10:56:54.081Z,100.00
2023-01-20T10:59:41.892Z,100.00
2023-01-20T11:02:34.883Z,100.00
2023-01-20T11:05:15.572Z,100.00
2023-01-20T11:07:45.071Z,100.00
2023-01-20T11:10:26.739Z,100.00
2023-01-20T11:13:00.168Z,100.00
2023-01-20T11:15:55.402Z,100.00
2023-01-20T11:18:27.748Z,100.00
2023-01-20T11:21:08.675Z,100.00
2023-01-20T11:23:37.092Z,100.00
2023-01-20T11:26:12.508Z,100.00
2023-01-20T11:28:54.337Z,100.00
2023-01-20T11:31:35.011Z,100.00
2023-01-20T11:34:18.176Z,100.00
2023-01-20T11:36:46.328Z,100.00
2023-01-20T11:39:35.221Z,100.00
2023-01-20T11:42:16.809Z,100.00
2023-01-20T11:44:48.083Z,100.00
2023-01-20T11:47:31.069Z,100.00
2023-01-20T11:50:04.530Z,100.00
2023-01-20T11:52:35.923Z,100.00
2023-01-20T11:55:25.911Z,100.00
2023-01-20T11:57:56.959Z,100.00
2023-01-20T12:00:37.342Z,100.00
2023-01-20T12:03:10.737Z,100.00
2023-01-20T12:05:48.508Z,100.00
2023-01-20T12:08:32.740Z,100.00
2023-01-20T12:11:05.152Z,100.00
2023-01-20T12:13:58.833Z,100.00
2023-01-20T12:16:30.563Z,100.00
2023-01-20T13:03:42.051Z,100.00
2023-01-20T13:06:31.191Z,100.00
2023-01-20T13:09:25.396Z,100.00
2023-01-20T13:12:14.579Z,100.00
2023-01-20T13:15:21.020Z,100.00
2023-01-20T13:18:28.061Z,100.00
2023-01-20T13:20:55.891Z,100.00
2023-01-20T13:23:34.488Z,99.76
2023-01-20T13:26:05.065Z,99.45
2023-01-20T13:28:33.290Z,99.41
2023-01-20T13:31:21.529Z,98.93
2023-01-20T13:33:49.291Z,99.41
2023-01-20T13:36:22.074Z,100.00
2023-01-20T13:39:10.814Z,99.28
2023-01-20T13:41:52.632Z,99.48
2023-01-20T13:44:42.301Z,99.86
2023-01-20T13:47:11.450Z,100.00
2023-01-20T13:49:49.852Z,99.31
2023-01-20T13:52:52.259Z,100.00
2023-01-20T13:55:45.074Z,99.86
2023-01-20T13:58:19.497Z,100.00
2023-01-20T14:00:51.152Z,98.92
2023-01-20T14:03:23.279Z,98.08
2023-01-20T14:05:53.500Z,98.30
2023-01-20T14:08:22.690Z,97.29
2023-01-20T14:10:50.694Z,96.63
2023-01-20T14:13:23.456Z,96.28
2023-01-20T14:15:56.453Z,93.67
2023-01-20T14:18:28.467Z,93.30
2023-01-20T14:21:15.992Z,92.54
2023-01-20T14:23:46.345Z,92.07
2023-01-20T14:26:34.279Z,91.49
2023-01-20T14:29:05.148Z,90.16
2023-01-20T14:31:45.863Z,88.25
2023-01-20T14:34:28.925Z,87.30
2023-01-20T14:36:59.834Z,87.37
2023-01-20T14:39:29.399Z,86.80
2023-01-20T14:42:01.313Z,87.29
2023-01-20T14:44:35.133Z,88.04
2023-01-20T14:47:05.422Z,89.21
2023-01-20T14:49:36.504Z,88.34
2023-01-20T14:52:07.968Z,89.00
2023-01-20T14:54:43.775Z,88.75
2023-01-20T14:57:26.389Z,88.65
2023-01-20T15:00:05.478Z,89.59
2023-01-20T15:02:36.079Z,89.08
2023-01-20T15:05:21.699Z,89.53
2023-01-20T15:07:49.679Z,88.59
2023-01-20T15:10:18.592Z,88.53
2023-01-20T15:12:46.183Z,88.54
2023-01-20T15:15:32.622Z,88.81
2023-01-20T15:18:17.105Z,87.78
2023-01-20T15:21:03.836Z,87.73
2023-01-20T15:23:41.422Z,87.35
2023-01-20T15:26:21.857Z,87.03
2023-01-20T15:28:49.584Z,86.99
2023-01-20T15:31:18.200Z,88.13
2023-01-20T15:33:45.961Z,88.03
2023-01-20T15:36:24.653Z,88.41
2023-01-20T15:38:52.514Z,87.84
2023-01-20T15:41:20.738Z,86.78
2023-01-20T15:43:49.464Z,84.74
2023-01-20T15:46:17.975Z,83.07
2023-01-20T15:48:46.111Z,84.43
2023-01-20T15:51:18.776Z,85.39
2023-01-20T15:53:47.120Z,85.17
2023-01-20T15:56:24.360Z,86.16
2023-01-20T15:58:52.406Z,86.69
2023-01-20T16:01:25.725Z,87.16
2023-01-20T16:03:55.097Z,88.47
2023-01-20T16:06:35.880Z,87.87
2023-01-20T16:09:27.528Z,88.55
2023-01-20T16:11:55.629Z,88.32
2023-01-20T16:14:23.087Z,88.40
2023-01-20T16:16:50.611Z,88.82
2023-01-20T16:19:17.940Z,88.92
2023-01-20T16:21:45.821Z,90.04
2023-01-20T16:24:13.532Z,89.22
2023-01-20T16:26:46.083Z,89.22
2023-01-20T16:29:13.748Z,89.22
2023-01-20T16:31:41.229Z,90.09
2023-01-20T16:34:08.765Z,90.64
2023-01-20T16:36:36.240Z,92.72
2023-01-20T16:39:03.719Z,94.01
2023-01-20T16:41:31.195Z,94.58
2023-01-20T16:43:58.912Z,95.05
2023-01-20T16:46:29.714Z,94.99
2023-01-20T16:48:59.804Z,96.17
2023-01-20T16:51:29.118Z,96.25
2023-01-20T16:53:57.549Z,96.37
2023-01-20T16:56:30.402Z,97.26
2023-01-20T16:59:03.261Z,97.21
2023-01-20T17:01:30.875Z,97.15
2023-01-20T17:04:00.904Z,98.08
2023-01-20T17:06:31.787Z,99.48
2023-01-20T17:09:01.332Z,99.77
2023-01-20T17:11:34.963Z,99.86
2023-01-20T17:14:05.254Z,100.00
2023-01-20T17:16:33.503Z,100.00
2023-01-20T17:19:02.049Z,100.00
2023-01-20T17:21:31.294Z,100.00
2023-01-20T17:24:04.245Z,100.00
2023-01-20T17:26:32.216Z,100.00
2023-01-20T17:29:03.061Z,100.00
2023-01-20T17:31:34.574Z,100.00
2023-01-20T17:34:06.218Z,100.00
2023-01-20T17:36:34.929Z,100.00
2023-01-20T17:39:03.708Z,100.00
2023-01-20T17:41:31.805Z,100.00
2023-01-20T17:43:59.393Z,100.00
2023-01-20T17:46:29.179Z,100.00
2023-01-20T17:48:57.951Z,100.00
2023-01-20T17:51:28.104Z,100.00
2023-01-20T17:53:58.024Z,100.00
2023-01-20T17:56:25.794Z,100.00
2023-01-20T17:58:54.099Z,100.00
2023-01-20T18:01:27.313Z,100.00
2023-01-20T18:03:58.269Z,100.00
2023-01-20T18:06:27.373Z,100.00
2023-01-20T18:09:00.564Z,100.00
2023-01-20T18:11:30.970Z,100.00
2023-01-20T18:14:00.402Z,100.00
2023-01-20T18:16:36.259Z,100.00
2023-01-20T18:19:04.725Z,100.00
2023-01-20T18:21:35.258Z,100.00
2023-01-20T18:24:04.698Z,100.00
2023-01-20T18:26:34.180Z,100.00
2023-01-20T18:29:04.888Z,100.00
2023-01-20T18:31:33.568Z,100.00
2023-01-20T18:34:05.101Z,100.00
2023-01-20T18:36:38.982Z,100.00
2023-01-20T18:39:18.735Z,100.00
2023-01-20T18:41:46.623Z,100.00
2023-01-20T18:44:14.377Z,100.00
2023-01-20T18:46:42.357Z,100.00
2023-01-20T18:49:13.753Z,100.00
2023-01-20T18:51:42.411Z,100.00
2023-01-20T18:54:18.217Z,100.00
2023-01-20T18:56:45.663Z,100.00
2023-01-20T18:59:13.640Z,100.00
2023-01-20T19:01:42.217Z,100.00
2023-01-20T19:04:12.106Z,100.00
2023-01-20T19:06:42.051Z,100.00
2023-01-20T19:09:10.175Z,100.00
2023-01-20T19:11:41.188Z,100.00
2023-01-20T19:14:11.931Z,100.00
2023-01-20T19:16:42.348Z,100.00
2023-01-20T19:19:10.824Z,100.00
2023-01-20T19:21:38.373Z,100.00
2023-01-20T19:24:07.646Z,100.00
2023-01-20T19:26:37.493Z,100.00
2023-01-20T19:29:07.530Z,100.00
2023-01-20T19:31:38.474Z,100.00
2023-01-20T19:34:07.639Z,100.00
2023-01-20T19:36:35.886Z,100.00
2023-01-20T19:39:04.118Z,100.00
2023-01-20T19:41:34.384Z,100.00
2023-01-20T19:44:04.670Z,100.00
2023-01-20T19:46:34.301Z,100.00
2023-01-20T19:49:02.629Z,100.00
2023-01-20T19:51:31.682Z,100.00
2023-01-20T19:54:01.498Z,100.00
2023-01-20T19:56:31.873Z,100.00
2023-01-20T19:59:00.931Z,100.00
2023-01-20T20:01:31.792Z,100.00
2023-01-20T20:04:00.173Z,100.00
2023-01-20T20:06:31.847Z,100.00
2023-01-20T20:09:02.108Z,100.00
2023-01-20T20:11:32.599Z,100.00
2023-01-20T20:14:01.777Z,100.00
2023-01-20T20:16:31.379Z,100.00
2023-01-20T20:18:59.696Z,100.00
2023-01-20T20:21:30.322Z,100.00
2023-01-20T20:23:59.787Z,100.00
2023-01-20T20:26:31.115Z,100.00
2023-01-20T20:29:00.023Z,100.00
2023-01-20T20:31:29.517Z,100.00
2023-01-20T20:33:59.117Z,100.00
2023-01-20T20:36:31.269Z,100.00
2023-01-20T20:39:01.299Z,100.00
2023-01-20T20:41:31.635Z,100.00
2023-01-20T20:44:01.250Z,100.00
2023-01-20T20:46:29.679Z,100.00
2023-01-20T20:48:59.748Z,100.00
2023-01-20T20:51:29.472Z,100.00
2023-01-20T20:53:58.481Z,100.00
2023-01-20T20:56:32.995Z,100.00
2023-01-20T20:59:03.336Z,100.00
2023-01-20T21:01:34.272Z,100.00
2023-01-20T21:04:03.435Z,100.00
2023-01-20T21:06:32.040Z,100.00
2023-01-20T21:09:00.293Z,100.00
2023-01-20T21:11:28.019Z,100.00
2023-01-20T21:13:55.934Z,100.00
2023-01-20T21:16:24.486Z,100.00
2023-01-20T21:18:53.807Z,100.00
2023-01-20T21:21:22.677Z,100.00
2023-01-20T21:23:54.793Z,100.00
2023-01-20T21:26:24.028Z,100.00
2023-01-20T21:28:51.993Z,100.00
2023-01-20T21:31:26.168Z,100.00
2023-01-20T21:33:55.479Z,100.00
2023-01-20T21:36:23.282Z,100.00
2023-01-20T21:38:51.550Z,100.00
2023-01-20T21:41:19.837Z,100.00
2023-01-20T21:44:06.854Z,100.00
2023-01-20T21:46:39.498Z,100.00
2023-01-20T21:49:27.324Z,100.00
2023-01-20T21:52:14.115Z,100.00
2023-01-20T21:54:41.988Z,100.00
2023-01-20T21:57:09.729Z,100.00
2023-01-20T21:59:37.497Z,100.00
2023-01-20T22:02:05.418Z,100.00
2023-01-20T22:04:33.210Z,100.00
2023-01-20T22:07:00.646Z,100.00
2023-01-20T22:09:28.272Z,100.00
2023-01-20T22:11:55.559Z,100.00
2023-01-20T22:14:23.249Z,100.00
2023-01-20T22:16:50.865Z,100.00
2023-01-20T22:19:18.383Z,100.00
2023-01-20T22:21:45.587Z,100.00
2023-01-20T22:24:13.047Z,100.00
2023-01-20T22:26:40.495Z,100.00
2023-01-20T22:29:08.280Z,100.00
2023-01-20T22:31:35.734Z,100.00
2023-01-20T22:34:05.285Z,100.00
2023-01-20T22:36:33.844Z,100.00
2023-01-20T22:39:02.092Z,100.00
2023-01-20T22:41:29.907Z,100.00
2023-01-20T22:43:57.887Z,100.00
2023-01-20T22:46:28.159Z,100.00
2023-01-20T22:48:59.686Z,100.00
2023-01-20T22:51:28.915Z,100.00
2023-01-20T22:53:58.750Z,100.00
2023-01-20T22:56:31.588Z,100.00
2023-01-20T22:59:00.127Z,100.00
2023-01-20T23:01:32.728Z,100.00
2023-01-20T23:04:02.838Z,100.00
2023-01-20T23:06:33.509Z,100.00
2023-01-20T23:09:04.252Z,100.00
2023-01-20T23:11:31.996Z,100.00
2023-01-20T23:14:00.420Z,100.00
2023-01-20T23:16:28.293Z,100.00
2023-01-20T23:18:56.047Z,100.00
2023-01-20T23:21:24.533Z,100.00
2023-01-20T23:23:54.809Z,100.00
2023-01-20T23:26:24.981Z,100.00
2023-01-20T23:28:54.065Z,100.00
2023-01-20T23:31:23.564Z,100.00
2023-01-20T23:33:53.127Z,100.00
2023-01-20T23:36:24.682Z,100.00
2023-01-20T23:38:56.203Z,100.00
2023-01-20T23:41:24.850Z,100.00
2023-01-20T23:43:52.462Z,100.00
2023-01-20T23:46:20.271Z,100.00
2023-01-20T23:48:47.805Z,100.00
2023-01-20T23:51:15.556Z,100.00
2023-01-20T23:53:43.439Z,100.00
2023-01-20T23:56:16.739Z,100.00
2023-01-20T23:58:44.501Z,100.00
